Time;durP1;ratioP1;P1;durP2;ratioP2;P2;SDS_P1;SDS_P2;PMS_P1;PMS_P2;Temp;Humidity;BMP_temperature;BMP_pressure;BME280_temperature;BME280_humidity;BME280_pressure;Samples;Min_cycle;Max_cycle;Signal;HPM_P1;HPM_P2
2021/01/30 00:04:13;;;;;;;36.58;18.63;;;;;;;2.68;100.00;93182.44;10511668;28;20039;-68
2021/01/30 00:09:14;;;;;;;36.03;19.60;;;;;;;2.74;100.00;93179.53;10532251;28;20031;-69
2021/01/30 00:14:19;;;;;;;40.00;19.65;;;;;;;2.74;100.00;93173.44;10544953;28;20793;-69
2021/01/30 00:19:20;;;;;;;39.50;18.83;;;;;;;2.72;100.00;93168.41;10539674;28;20470;-69
2021/01/30 00:24:22;;;;;;;42.97;20.15;;;;;;;2.68;100.00;93172.66;10528948;28;20028;-70
2021/01/30 00:29:26;;;;;;;39.63;18.45;;;;;;;2.71;100.00;93158.84;10563055;28;20072;-70
2021/01/30 00:34:28;;;;;;;30.55;17.02;;;;;;;2.63;100.00;93150.63;10569601;28;20028;-70
2021/01/30 00:39:29;;;;;;;42.80;20.05;;;;;;;2.56;100.00;93143.69;10572310;28;20063;-70
2021/01/30 00:44:30;;;;;;;46.83;21.27;;;;;;;2.33;100.00;93122.97;10562354;28;20115;-71
2021/01/30 00:49:30;;;;;;;42.03;23.05;;;;;;;2.29;100.00;93106.00;10573636;28;20269;-70
2021/01/30 00:54:30;;;;;;;42.87;23.67;;;;;;;2.25;100.00;93116.34;10554983;28;20036;-70
2021/01/30 00:59:31;;;;;;;39.03;20.45;;;;;;;2.01;100.00;93102.72;10569602;28;20277;-70
2021/01/30 01:04:31;;;;;;;44.93;23.43;;;;;;;2.07;100.00;93091.09;10576083;28;20039;-70
2021/01/30 01:09:31;;;;;;;32.00;20.43;;;;;;;2.11;100.00;93070.97;10560679;28;20296;-70
2021/01/30 01:14:32;;;;;;;47.33;24.90;;;;;;;2.20;100.00;93068.59;10543541;28;20024;-70
2021/01/30 01:19:32;;;;;;;54.37;27.47;;;;;;;2.18;100.00;93052.97;10564279;28;20298;-70
2021/01/30 01:24:32;;;;;;;56.47;28.58;;;;;;;2.24;100.00;93051.13;10570207;28;20756;-69
2021/01/30 01:29:33;;;;;;;45.57;23.80;;;;;;;2.25;100.00;93052.72;10571310;28;20031;-69
2021/01/30 01:34:33;;;;;;;58.57;28.27;;;;;;;2.16;100.00;93036.53;10572510;28;20034;-69
2021/01/30 01:39:34;;;;;;;69.05;34.88;;;;;;;2.09;100.00;93030.69;10576061;28;20336;-70
2021/01/30 01:44:34;;;;;;;69.55;32.53;;;;;;;1.91;100.00;93009.97;10516666;28;20055;-71
2021/01/30 01:49:40;;;;;;;76.75;35.85;;;;;;;1.99;100.00;93004.97;10534257;28;20032;-69
2021/01/30 01:54:40;;;;;;;72.57;38.70;;;;;;;1.98;100.00;92991.97;10534987;28;20407;-69
2021/01/30 01:59:47;;;;;;;72.40;37.90;;;;;;;1.90;100.00;92973.94;10534263;28;20040;-69
2021/01/30 02:05:00;;;;;;;77.63;39.60;;;;;;;1.88;100.00;92964.44;10534333;28;20052;-69
2021/01/30 02:10:00;;;;;;;64.93;34.50;;;;;;;1.99;100.00;92951.97;10515907;28;20027;-70
2021/01/30 02:15:01;;;;;;;79.95;39.97;;;;;;;1.94;100.00;92948.53;10533944;28;20038;-69
2021/01/30 02:20:45;;;;;;;68.38;34.67;;;;;;;1.99;100.00;92940.59;10533130;28;20167;-69
2021/01/30 02:26:16;;;;;;;58.88;30.75;;;;;;;1.75;100.00;92942.97;10533680;28;20460;-69
2021/01/30 02:31:36;;;;;;;63.03;35.00;;;;;;;1.86;100.00;92926.81;10532732;28;20036;-70
2021/01/30 02:36:43;;;;;;;62.83;33.05;;;;;;;1.97;100.00;92930.25;10533113;28;20065;-70
2021/01/30 02:41:53;;;;;;;74.15;32.30;;;;;;;2.00;100.00;92932.38;10532456;28;20077;-70
2021/01/30 02:46:56;;;;;;;60.40;32.00;;;;;;;1.87;100.00;92948.78;10532490;28;20032;-70
2021/01/30 02:52:05;;;;;;;68.00;35.17;;;;;;;1.42;100.00;92939.69;10531906;28;20024;-70
2021/01/30 02:57:09;;;;;;;70.40;36.13;;;;;;;1.32;100.00;92943.88;10531976;28;20081;-70
2021/01/30 03:02:10;;;;;;;68.55;38.38;;;;;;;1.22;100.00;92954.44;10532240;28;20028;-70
2021/01/30 03:07:29;;;;;;;74.57;36.92;;;;;;;1.48;100.00;92950.03;10532465;28;20039;-70
2021/01/30 03:12:52;;;;;;;67.93;32.83;;;;;;;1.69;100.00;92958.81;10513690;28;20032;-70
2021/01/30 03:17:56;;;;;;;58.25;30.27;;;;;;;1.67;100.00;92973.38;10531835;28;20102;-69
2021/01/30 03:22:58;;;;;;;58.30;30.40;;;;;;;1.52;100.00;92969.66;10531227;28;20051;-69
2021/01/30 03:28:00;;;;;;;59.22;30.70;;;;;;;1.38;100.00;92965.09;10531099;28;20479;-70
2021/01/30 03:33:01;;;;;;;64.07;31.60;;;;;;;1.39;100.00;92978.06;10531454;28;20451;-69
2021/01/30 03:38:02;;;;;;;63.13;33.50;;;;;;;1.47;100.00;92976.78;10531233;28;20034;-70
2021/01/30 03:43:03;;;;;;;61.90;33.38;;;;;;;1.10;100.00;92983.75;10530834;28;20042;-69
2021/01/30 03:48:04;;;;;;;61.85;32.38;;;;;;;1.00;100.00;92991.66;10531072;28;20032;-70
2021/01/30 03:53:07;;;;;;;67.97;36.80;;;;;;;0.87;100.00;92986.84;10531255;28;20093;-70
2021/01/30 03:58:07;;;;;;;83.90;40.90;;;;;;;0.76;100.00;92999.19;10530645;28;20115;-70
2021/01/30 04:03:08;;;;;;;95.65;45.75;;;;;;;0.63;100.00;92997.78;10532628;28;20116;-69
2021/01/30 04:08:08;;;;;;;109.07;54.13;;;;;;;0.44;100.00;93007.97;10538764;28;20035;-69
2021/01/30 04:13:10;;;;;;;123.50;57.47;;;;;;;0.15;100.00;93009.06;10538456;28;20367;-69
2021/01/30 04:18:12;;;;;;;120.88;58.72;;;;;;;0.15;100.00;93000.31;10538344;28;20349;-69
2021/01/30 04:23:12;;;;;;;135.77;61.85;;;;;;;-0.05;100.00;92999.09;10519505;28;20116;-69
2021/01/30 04:28:12;;;;;;;128.73;63.97;;;;;;;-0.07;100.00;92997.75;10537636;28;20081;-69
2021/01/30 04:33:13;;;;;;;133.98;61.58;;;;;;;0.05;100.00;92984.38;10537453;28;20027;-70
2021/01/30 04:38:13;;;;;;;133.20;61.75;;;;;;;-0.02;100.00;92997.78;10537664;28;20024;-70
2021/01/30 04:43:21;;;;;;;130.47;58.53;;;;;;;-0.02;100.00;93003.06;10536606;28;20032;-70
2021/01/30 04:48:45;;;;;;;116.65;53.63;;;;;;;0.08;100.00;92997.09;10537148;28;20278;-71
2021/01/30 04:53:54;;;;;;;117.07;52.70;;;;;;;0.09;100.00;93003.97;10536742;28;20036;-69
2021/01/30 04:59:03;;;;;;;141.00;53.20;;;;;;;0.20;100.00;93004.88;10536547;28;20116;-70
2021/01/30 05:04:07;;;;;;;105.95;46.47;;;;;;;0.46;100.00;93011.94;10536326;28;20039;-70
2021/01/30 05:09:21;;;;;;;104.25;47.42;;;;;;;0.69;100.00;93009.97;10536061;28;20032;-71
2021/01/30 05:14:28;;;;;;;100.22;47.60;;;;;;;0.78;100.00;93019.03;10535407;28;20028;-71
2021/01/30 05:19:33;;;;;;;98.63;46.38;;;;;;;0.89;100.00;93022.53;10536196;28;20134;-70
2021/01/30 05:24:34;;;;;;;95.50;44.95;;;;;;;0.87;100.00;93027.28;10561360;28;20039;-70
2021/01/30 05:29:53;;;;;;;93.47;44.75;;;;;;;0.86;100.00;93030.97;10549829;28;20039;-71
2021/01/30 05:35:03;;;;;;;110.40;46.83;;;;;;;0.56;100.00;93045.59;10535419;28;20031;-71
2021/01/30 05:40:31;;;;;;;95.93;41.50;;;;;;;0.75;100.00;93038.03;10534913;28;20038;-71
2021/01/30 05:45:55;;;;;;;96.87;43.47;;;;;;;0.59;100.00;93052.22;10534573;28;20067;-70
2021/01/30 05:51:04;;;;;;;85.57;42.22;;;;;;;0.47;100.00;93058.44;10550822;28;20081;-70
2021/01/30 05:56:04;;;;;;;88.70;42.47;;;;;;;0.17;100.00;93062.41;10534507;28;20437;-71
2021/01/30 06:01:17;;;;;;;98.25;46.78;;;;;;;0.07;100.00;93074.72;10534212;28;20032;-71
2021/01/30 06:06:19;;;;;;;101.68;48.00;;;;;;;-0.12;100.00;93079.56;10534332;28;20063;-71
2021/01/30 06:11:20;;;;;;;105.65;48.65;;;;;;;0.01;100.00;93092.38;10561700;28;20152;-71
2021/01/30 06:16:46;;;;;;;106.07;47.65;;;;;;;0.13;100.00;93108.88;10575526;28;20028;-71
2021/01/30 06:21:50;;;;;;;101.38;44.60;;;;;;;0.26;100.00;93120.09;10575196;28;20101;-70
2021/01/30 06:26:51;;;;;;;86.40;39.78;;;;;;;0.30;100.00;93132.56;10574089;28;20027;-70
2021/01/30 06:31:52;;;;;;;73.63;35.20;;;;;;;0.40;100.00;93146.94;10556745;28;20035;-70
2021/01/30 06:36:54;;;;;;;52.92;26.75;;;;;;;0.50;100.00;93141.72;10575109;28;20039;-69
2021/01/30 06:41:56;;;;;;;46.47;22.30;;;;;;;0.36;100.00;93153.75;10574628;28;20027;-70
2021/01/30 06:47:20;;;;;;;38.60;20.48;;;;;;;0.57;100.00;93158.19;10574597;28;20097;-70
2021/01/30 06:52:25;;;;;;;43.72;21.02;;;;;;;0.33;100.00;93147.13;10573818;28;20022;-70
2021/01/30 06:57:26;;;;;;;32.42;17.88;;;;;;;0.30;100.00;93155.53;10574348;28;20102;-69
2021/01/30 07:02:38;;;;;;;41.00;19.60;;;;;;;0.58;100.00;93174.84;10533435;28;20032;-70
2021/01/30 07:07:53;;;;;;;25.30;14.10;;;;;;;0.72;100.00;93170.75;10532974;28;20088;-70
2021/01/30 07:13:24;;;;;;;29.70;13.18;;;;;;;0.92;100.00;93164.03;10531854;28;20027;-70
2021/01/30 07:18:29;;;;;;;13.60;8.43;;;;;;;1.00;100.00;93179.47;10531743;28;20028;-70
2021/01/30 07:23:46;;;;;;;24.83;11.32;;;;;;;1.20;100.00;93189.44;10567502;28;20047;-71
2021/01/30 07:29:04;;;;;;;10.48;7.32;;;;;;;1.00;100.00;93192.69;10555141;28;20026;-70
2021/01/30 07:34:26;;;;;;;12.68;5.22;;;;;;;1.09;100.00;93200.94;10573499;28;20378;-70
2021/01/30 07:39:41;;;;;;;8.30;5.07;;;;;;;1.30;100.00;93204.59;10579421;28;20513;-70
2021/01/30 07:44:48;;;;;;;14.40;5.63;;;;;;;1.39;100.00;93210.19;10581721;28;20028;-70
2021/01/30 07:50:01;;;;;;;7.15;3.65;;;;;;;1.34;100.00;93206.47;10581563;28;20089;-70
2021/01/30 07:55:04;;;;;;;17.50;5.22;;;;;;;1.53;100.00;93222.75;10580938;28;20027;-71
2021/01/30 08:00:10;;;;;;;5.68;3.78;;;;;;;1.70;100.00;93224.44;10581395;28;20027;-70
2021/01/30 08:05:28;;;;;;;9.32;4.57;;;;;;;1.91;100.00;93227.22;10580999;28;20027;-69
2021/01/30 08:10:55;;;;;;;4.83;3.30;;;;;;;2.10;100.00;93225.72;10580770;28;20106;-69
2021/01/30 08:16:14;;;;;;;4.30;2.65;;;;;;;1.96;100.00;93229.91;10580385;28;20782;-69
2021/01/30 08:21:23;;;;;;;4.25;2.22;;;;;;;1.88;100.00;93239.94;10578949;28;20048;-70
2021/01/30 08:26:32;;;;;;;3.05;2.25;;;;;;;1.94;100.00;93254.00;10561670;28;20059;-70
2021/01/30 08:31:54;;;;;;;7.00;2.05;;;;;;;2.27;100.00;93267.16;10579581;28;20023;-69
2021/01/30 08:37:00;;;;;;;4.78;1.77;;;;;;;2.31;100.00;93260.28;10578309;27;20373;-69
2021/01/30 08:42:14;;;;;;;2.63;1.70;;;;;;;2.36;100.00;93292.91;10578049;27;20030;-69
2021/01/30 08:47:22;;;;;;;7.22;3.05;;;;;;;2.66;100.00;93290.66;10577634;28;20028;-68
2021/01/30 08:52:44;;;;;;;4.50;2.42;;;;;;;2.86;100.00;93288.09;10569223;28;20028;-68
2021/01/30 08:57:45;;;;;;;4.88;2.13;;;;;;;2.55;100.00;93289.81;10536641;28;20035;-68
2021/01/30 09:02:48;;;;;;;3.58;2.05;;;;;;;3.05;100.00;93299.00;10543221;28;20027;-69
2021/01/30 09:07:57;;;;;;;10.02;3.50;;;;;;;3.31;100.00;93292.94;10594317;27;20031;-69
2021/01/30 09:13:06;;;;;;;6.00;2.67;;;;;;;3.67;100.00;93293.00;10577937;27;20044;-69
2021/01/30 09:18:18;;;;;;;5.63;2.40;;;;;;;3.91;100.00;93299.38;10570146;28;20023;-81
2021/01/30 09:23:43;;;;;;;4.97;2.58;;;;;;;3.63;100.00;93297.25;10561976;28;20116;-68
2021/01/30 09:28:43;;;;;;;5.63;3.10;;;;;;;3.85;100.00;93313.75;10553269;28;20890;-69
2021/01/30 09:34:15;;;;;;;8.80;4.30;;;;;;;4.14;100.00;93328.34;10552913;28;20107;-69
2021/01/30 09:39:30;;;;;;;9.65;4.18;;;;;;;4.36;100.00;93328.84;10558206;28;20040;-69
2021/01/30 09:44:30;;;;;;;12.25;6.32;;;;;;;4.37;100.00;93327.78;10565552;28;20066;-69
2021/01/30 09:49:37;;;;;;;10.52;4.45;;;;;;;4.51;100.00;93312.03;10568576;27;20091;-74
2021/01/30 09:54:37;;;;;;;12.18;5.93;;;;;;;5.00;100.00;93307.88;10570613;28;20089;-74
2021/01/30 09:59:38;;;;;;;15.27;6.43;;;;;;;6.05;100.00;93309.66;10569387;28;20599;-74
2021/01/30 10:04:39;;;;;;;14.65;6.97;;;;;;;7.14;100.00;93291.41;10568194;28;20035;-73
2021/01/30 10:09:45;;;;;;;14.68;6.32;;;;;;;8.66;100.00;93283.16;10569422;28;20831;-74
2021/01/30 10:14:58;;;;;;;9.80;5.18;;;;;;;9.82;100.00;93290.13;10564397;28;20016;-73
2021/01/30 10:20:07;;;;;;;12.02;5.80;;;;;;;10.35;100.00;93280.59;10567544;28;20054;-75
2021/01/30 10:25:16;;;;;;;7.50;5.25;;;;;;;9.83;100.00;93294.41;10558329;28;20036;-74
2021/01/30 10:30:18;;;;;;;10.32;5.65;;;;;;;8.96;100.00;93296.25;10556141;28;20020;-73
2021/01/30 10:35:26;;;;;;;10.43;5.68;;;;;;;10.08;100.00;93294.94;10531312;28;20024;-73
2021/01/30 10:40:37;;;;;;;8.10;5.68;;;;;;;9.94;100.00;93304.94;10536867;28;20094;-74
2021/01/30 10:45:42;;;;;;;13.40;7.43;;;;;;;10.14;100.00;93298.28;10566305;28;20032;-68
2021/01/30 10:50:45;;;;;;;15.02;8.70;;;;;;;12.43;100.00;93288.63;10571302;28;20031;-68
2021/01/30 10:55:45;;;;;;;12.77;5.68;;;;;;;12.83;87.46;93292.94;10567071;28;20027;-68
2021/01/30 11:01:17;;;;;;;9.57;4.93;;;;;;;14.02;81.45;93297.53;10568725;28;20039;-68
2021/01/30 11:06:32;;;;;;;7.82;4.43;;;;;;;17.01;56.13;93295.19;10570570;28;20084;-68
2021/01/30 11:11:32;;;;;;;6.97;3.35;;;;;;;17.47;51.17;93295.56;10571286;28;20089;-69
2021/01/30 11:16:33;;;;;;;4.65;3.20;;;;;;;18.57;46.62;93287.44;10570627;28;20115;-68
2021/01/30 11:21:38;;;;;;;4.35;3.17;;;;;;;18.74;45.18;93282.66;10570814;28;20088;-68
2021/01/30 11:26:41;;;;;;;4.00;2.42;;;;;;;20.38;39.61;93284.84;10572262;28;20130;-69
2021/01/30 11:31:41;;;;;;;2.90;2.60;;;;;;;20.58;38.31;93305.38;10570551;28;20024;-68
2021/01/30 11:36:45;;;;;;;4.15;3.25;;;;;;;19.75;40.80;93314.38;10571133;28;20039;-69
2021/01/30 11:41:46;;;;;;;8.55;3.45;;;;;;;20.18;41.59;93319.66;10570530;28;20032;-69
2021/01/30 11:46:47;;;;;;;6.13;3.70;;;;;;;20.85;39.60;93310.78;10571353;28;20036;-69
2021/01/30 11:51:47;;;;;;;8.27;3.70;;;;;;;21.98;37.28;93303.19;10571240;28;20034;-69
2021/01/30 11:56:48;;;;;;;4.88;2.90;;;;;;;20.22;37.27;93312.31;10570373;28;20111;-68
2021/01/30 12:01:48;;;;;;;8.90;3.80;;;;;;;18.39;41.30;93325.16;10567339;28;20031;-71
2021/01/30 12:06:49;;;;;;;7.80;4.40;;;;;;;14.83;54.11;93352.19;10565081;28;20023;-71
2021/01/30 12:11:49;;;;;;;7.93;4.87;;;;;;;12.58;78.77;93345.81;10567603;28;20304;-69
2021/01/30 12:16:53;;;;;;;9.33;5.97;;;;;;;11.31;90.06;93352.78;10567510;28;20023;-69
2021/01/30 12:21:54;;;;;;;9.88;5.85;;;;;;;9.71;99.40;93358.53;10566956;28;20392;-68
2021/01/30 12:26:54;;;;;;;13.90;6.72;;;;;;;8.89;100.00;93367.13;10573209;28;20031;-69
2021/01/30 12:31:54;;;;;;;11.30;6.50;;;;;;;8.48;100.00;93375.06;10554503;28;20451;-70
2021/01/30 12:36:55;;;;;;;12.03;7.03;;;;;;;7.81;100.00;93390.22;10568721;28;20280;-70
2021/01/30 12:41:55;;;;;;;12.55;7.00;;;;;;;7.42;100.00;93393.13;10576651;28;20070;-70
2021/01/30 12:46:56;;;;;;;15.00;6.30;;;;;;;7.14;100.00;93387.59;10562680;28;20034;-74
2021/01/30 12:51:56;;;;;;;9.35;5.90;;;;;;;6.76;100.00;93401.59;10555907;28;20640;-74
2021/01/30 12:56:56;;;;;;;8.97;6.07;;;;;;;6.22;100.00;93413.25;10576198;28;20023;-73
2021/01/30 13:01:57;;;;;;;9.53;6.13;;;;;;;5.79;100.00;93419.91;10569169;28;20114;-75
2021/01/30 13:06:57;;;;;;;14.90;6.10;;;;;;;5.88;100.00;93430.78;10576248;28;20023;-73
2021/01/30 13:11:58;;;;;;;9.55;6.13;;;;;;;6.01;100.00;93436.63;10575856;28;20277;-73
2021/01/30 13:16:59;;;;;;;13.07;5.88;;;;;;;6.12;100.00;93438.13;10575969;28;20028;-73
2021/01/30 13:21:59;;;;;;;6.50;4.23;;;;;;;6.13;100.00;93421.84;10575860;28;20042;-74
2021/01/30 13:27:03;;;;;;;6.95;4.45;;;;;;;6.05;100.00;93424.31;10575935;28;20308;-72
2021/01/30 13:32:04;;;;;;;7.78;4.63;;;;;;;6.18;100.00;93431.69;10575540;28;20034;-72
2021/01/30 13:37:04;;;;;;;6.65;4.75;;;;;;;6.01;100.00;93428.63;10563763;28;20043;-72
2021/01/30 13:42:05;;;;;;;9.90;5.15;;;;;;;6.03;100.00;93426.47;10552504;28;20034;-72
2021/01/30 13:47:05;;;;;;;9.45;5.32;;;;;;;5.86;100.00;93429.47;10573611;28;20030;-72
2021/01/30 13:52:06;;;;;;;13.93;5.88;;;;;;;5.97;100.00;93420.31;10575011;28;20019;-72
2021/01/30 13:57:06;;;;;;;8.07;4.23;;;;;;;5.90;100.00;93410.00;10533012;28;20110;-72
2021/01/30 14:02:06;;;;;;;10.10;4.40;;;;;;;6.01;100.00;93423.28;10530769;28;20278;-72
2021/01/30 14:07:07;;;;;;;7.07;4.38;;;;;;;6.12;100.00;93420.25;10532264;28;20285;-72
2021/01/30 14:12:07;;;;;;;7.20;4.67;;;;;;;6.15;100.00;93432.25;10532043;28;20750;-71
2021/01/30 14:17:08;;;;;;;8.15;5.43;;;;;;;5.91;100.00;93416.13;10532091;28;20289;-72
2021/01/30 14:22:08;;;;;;;6.43;4.33;;;;;;;5.85;100.00;93422.53;10531734;28;20126;-72
2021/01/30 14:27:09;;;;;;;7.90;4.20;;;;;;;5.86;100.00;93414.28;10531940;28;20127;-74
2021/01/30 14:32:09;;;;;;;5.27;3.53;;;;;;;5.80;100.00;93402.03;10547379;28;20051;-72
2021/01/30 14:37:10;;;;;;;11.73;3.28;;;;;;;5.65;100.00;93422.38;10559211;28;20777;-72
2021/01/30 14:42:10;;;;;;;4.73;2.90;;;;;;;5.46;100.00;93437.41;10544568;28;20379;-72
2021/01/30 14:47:11;;;;;;;4.50;3.20;;;;;;;5.46;100.00;93446.19;10564068;28;20285;-72
2021/01/30 14:52:12;;;;;;;7.22;4.28;;;;;;;5.41;100.00;93448.06;10586110;27;20019;-72
2021/01/30 14:57:12;;;;;;;7.55;3.97;;;;;;;5.40;100.00;93459.78;10545100;28;20038;-75
2021/01/30 15:02:13;;;;;;;7.15;3.75;;;;;;;5.28;100.00;93473.44;10567420;28;20042;-75
2021/01/30 15:07:14;;;;;;;5.75;3.97;;;;;;;5.27;100.00;93483.31;10532186;28;20032;-67
2021/01/30 15:12:14;;;;;;;7.97;3.80;;;;;;;5.09;100.00;93494.50;10570559;28;20027;-68
2021/01/30 15:17:15;;;;;;;7.85;4.95;;;;;;;5.04;100.00;93508.63;10552871;28;20031;-67
2021/01/30 15:22:16;;;;;;;8.02;4.50;;;;;;;5.03;100.00;93512.34;10557051;28;20043;-67
2021/01/30 15:27:21;;;;;;;8.18;4.40;;;;;;;5.00;100.00;93523.56;10566512;28;20111;-68
2021/01/30 15:32:23;;;;;;;9.60;5.03;;;;;;;4.91;100.00;93531.28;10570562;28;20032;-67
2021/01/30 15:37:24;;;;;;;20.45;5.15;;;;;;;4.92;100.00;93548.03;10546231;28;20042;-68
2021/01/30 15:42:25;;;;;;;8.20;4.00;;;;;;;4.87;100.00;93548.03;10565439;28;20034;-75
2021/01/30 15:47:25;;;;;;;8.27;4.10;;;;;;;4.83;100.00;93550.44;10567987;28;20038;-74
2021/01/30 15:52:26;;;;;;;8.10;4.47;;;;;;;4.74;100.00;93550.16;10553281;28;20032;-75
2021/01/30 15:57:27;;;;;;;9.20;4.85;;;;;;;4.72;100.00;93548.84;10571181;28;20035;-74
2021/01/30 16:02:27;;;;;;;7.18;4.32;;;;;;;4.67;100.00;93549.63;10569590;28;20027;-75
2021/01/30 16:07:28;;;;;;;7.50;4.40;;;;;;;4.69;100.00;93558.16;10537234;28;20027;-74
2021/01/30 16:12:28;;;;;;;7.03;4.17;;;;;;;4.70;100.00;93565.09;10529170;28;20265;-74
2021/01/30 16:17:29;;;;;;;7.50;4.47;;;;;;;4.61;100.00;93578.09;10564774;28;20024;-74
2021/01/30 16:22:29;;;;;;;5.05;3.50;;;;;;;4.59;100.00;93585.56;10544173;28;20044;-73
2021/01/30 16:27:30;;;;;;;5.27;3.70;;;;;;;4.65;100.00;93593.53;10576089;28;20031;-74
2021/01/30 16:32:30;;;;;;;5.68;3.28;;;;;;;4.60;100.00;93595.16;10539733;28;20270;-74
2021/01/30 16:37:31;;;;;;;7.10;4.50;;;;;;;4.65;100.00;93582.88;10534868;28;20051;-74
2021/01/30 16:42:31;;;;;;;10.60;6.13;;;;;;;4.67;100.00;93570.13;10562826;28;20541;-74
2021/01/30 16:47:32;;;;;;;13.10;6.70;;;;;;;4.70;100.00;93558.94;10559306;28;20325;-74
2021/01/30 16:52:33;;;;;;;6.50;4.93;;;;;;;4.67;100.00;93559.50;10547054;28;20036;-73
2021/01/30 16:57:34;;;;;;;6.30;5.00;;;;;;;4.64;100.00;93560.03;10516424;28;20040;-73
2021/01/30 17:02:35;;;;;;;10.02;4.85;;;;;;;4.61;100.00;93556.81;10535097;28;20027;-74
2021/01/30 17:07:35;;;;;;;7.23;4.90;;;;;;;4.55;100.00;93555.22;10533736;28;20081;-73
2021/01/30 17:12:35;;;;;;;7.20;5.23;;;;;;;4.46;100.00;93564.78;10533417;28;20292;-74
2021/01/30 17:17:36;;;;;;;12.03;6.70;;;;;;;4.39;100.00;93567.69;10549095;28;20765;-73
2021/01/30 17:22:37;;;;;;;12.75;7.32;;;;;;;4.28;100.00;93585.50;10515514;28;20298;-74
2021/01/30 17:27:37;;;;;;;16.88;8.57;;;;;;;4.28;100.00;93595.31;10552116;28;20138;-75
2021/01/30 17:32:38;;;;;;;17.00;9.57;;;;;;;4.09;100.00;93606.44;10566561;28;20024;-76
2021/01/30 17:37:40;;;;;;;14.93;9.32;;;;;;;3.86;100.00;93610.31;10542346;28;20278;-74
2021/01/30 17:42:40;;;;;;;27.75;11.27;;;;;;;3.75;100.00;93612.16;10555663;28;20394;-74
2021/01/30 17:47:41;;;;;;;31.05;13.68;;;;;;;3.64;100.00;93630.94;10554095;28;20027;-75
2021/01/30 17:52:42;;;;;;;31.73;15.55;;;;;;;3.65;100.00;93638.66;10551189;28;20472;-74
2021/01/30 17:57:43;;;;;;;32.75;15.38;;;;;;;3.67;100.00;93622.44;10570480;28;20447;-75
2021/01/30 18:02:43;;;;;;;26.95;15.00;;;;;;;3.54;100.00;93626.38;10563759;28;20039;-75
2021/01/30 18:07:43;;;;;;;25.33;13.47;;;;;;;3.46;100.00;93601.09;10562746;28;20088;-75
2021/01/30 18:12:44;;;;;;;28.90;14.68;;;;;;;3.45;100.00;93594.19;10566557;28;20633;-75
2021/01/30 18:17:45;;;;;;;35.70;17.83;;;;;;;3.44;100.00;93603.19;10559888;28;20057;-72
2021/01/30 18:22:47;;;;;;;44.25;22.85;;;;;;;3.19;100.00;93604.63;10562841;28;20131;-74
2021/01/30 18:27:48;;;;;;;42.50;22.13;;;;;;;3.23;100.00;93595.09;10548731;28;20031;-74
2021/01/30 18:32:48;;;;;;;41.50;20.63;;;;;;;3.06;100.00;93611.16;10566003;28;20012;-74
2021/01/30 18:37:49;;;;;;;46.87;21.00;;;;;;;2.85;100.00;93617.38;10554944;28;20027;-74
2021/01/30 18:42:50;;;;;;;46.63;21.38;;;;;;;2.62;100.00;93632.53;10546616;28;20657;-74
2021/01/30 18:47:50;;;;;;;52.22;23.77;;;;;;;2.73;100.00;93625.47;10571044;28;20084;-74
2021/01/30 18:52:53;;;;;;;53.00;23.85;;;;;;;2.64;100.00;93619.06;10571874;28;20351;-74
2021/01/30 18:57:54;;;;;;;49.35;21.73;;;;;;;2.59;100.00;93611.03;10534523;28;20101;-74
2021/01/30 19:02:56;;;;;;;50.35;20.25;;;;;;;2.50;100.00;93608.84;10554371;28;20131;-74
2021/01/30 19:07:56;;;;;;;46.47;21.38;;;;;;;2.43;100.00;93605.59;10550663;28;20126;-74
2021/01/30 19:12:57;;;;;;;44.17;21.17;;;;;;;2.45;100.00;93614.06;10566255;28;20059;-74
2021/01/30 19:17:58;;;;;;;44.85;20.50;;;;;;;2.25;100.00;93622.63;10566200;28;20277;-74
2021/01/30 19:23:00;;;;;;;47.92;24.33;;;;;;;2.28;100.00;93626.63;10549331;28;20039;-75
2021/01/30 19:28:01;;;;;;;44.72;21.42;;;;;;;2.25;100.00;93621.81;10566701;28;20562;-75
2021/01/30 19:33:04;;;;;;;44.00;21.48;;;;;;;2.16;100.00;93632.88;10566571;28;20023;-76
2021/01/30 19:38:14;;;;;;;42.67;22.98;;;;;;;2.05;100.00;93633.78;10550835;28;20026;-75
2021/01/30 19:43:16;;;;;;;45.80;23.88;;;;;;;2.09;100.00;93636.75;10576602;28;20410;-77
2021/01/30 19:48:16;;;;;;;47.25;20.40;;;;;;;2.11;100.00;93627.50;10562731;28;20484;-76
2021/01/30 19:53:16;;;;;;;52.78;23.70;;;;;;;1.99;100.00;93632.13;10557715;28;20072;-76
2021/01/30 19:58:17;;;;;;;42.33;20.27;;;;;;;1.97;100.00;93611.19;10559664;28;20034;-75
2021/01/30 20:03:18;;;;;;;32.28;16.00;;;;;;;1.94;100.00;93624.09;10535985;28;20293;-75
2021/01/30 20:08:18;;;;;;;44.60;22.88;;;;;;;1.77;100.00;93606.41;10528987;28;20453;-75
2021/01/30 20:13:19;;;;;;;42.70;19.27;;;;;;;1.79;100.00;93617.59;10531574;28;20023;-75
2021/01/30 20:18:19;;;;;;;32.40;15.90;;;;;;;1.80;100.00;93615.72;10567403;28;20074;-75
2021/01/30 20:23:20;;;;;;;30.40;16.60;;;;;;;1.86;100.00;93601.50;10568596;28;20123;-75
2021/01/30 20:28:21;;;;;;;38.53;16.83;;;;;;;1.84;100.00;93612.38;10566366;28;20096;-75
2021/01/30 20:33:22;;;;;;;37.50;17.65;;;;;;;1.65;100.00;93595.16;10538169;28;20039;-75
2021/01/30 20:38:22;;;;;;;38.17;18.53;;;;;;;1.70;100.00;93592.56;10563211;28;20205;-76
2021/01/30 20:43:22;;;;;;;39.37;19.43;;;;;;;1.68;100.00;93589.38;10539289;28;20277;-75
2021/01/30 20:48:23;;;;;;;35.80;18.37;;;;;;;1.72;100.00;93595.78;10566272;28;20281;-77
2021/01/30 20:53:23;;;;;;;42.10;18.38;;;;;;;1.70;100.00;93587.28;10575643;28;20027;-76
2021/01/30 20:58:24;;;;;;;38.80;18.58;;;;;;;1.44;100.00;93589.59;10575815;28;20398;-76
2021/01/30 21:03:25;;;;;;;36.23;17.67;;;;;;;1.36;100.00;93593.44;10538809;28;20118;-76
2021/01/30 21:08:25;;;;;;;35.90;18.08;;;;;;;1.12;100.00;93603.44;10533702;28;20280;-75
2021/01/30 21:13:26;;;;;;;34.50;18.03;;;;;;;1.16;100.00;93606.41;10534259;28;20028;-75
2021/01/30 21:18:26;;;;;;;36.13;18.17;;;;;;;0.99;100.00;93624.94;10568398;28;20274;-75
2021/01/30 21:23:27;;;;;;;35.55;18.67;;;;;;;0.94;100.00;93633.59;10556449;28;20297;-75
2021/01/30 21:28:27;;;;;;;35.28;17.98;;;;;;;0.85;100.00;93648.25;10538332;28;20089;-76
2021/01/30 21:33:28;;;;;;;32.45;17.40;;;;;;;0.97;100.00;93648.97;10574018;28;20023;-76
2021/01/30 21:38:28;;;;;;;31.25;17.40;;;;;;;1.08;100.00;93644.66;10575369;28;20032;-77
2021/01/30 21:43:29;;;;;;;33.30;17.83;;;;;;;1.05;100.00;93636.38;10577416;28;20104;-79
2021/01/30 21:48:29;;;;;;;39.90;18.48;;;;;;;0.97;100.00;93645.53;10577661;28;20301;-79
2021/01/30 21:53:30;;;;;;;35.40;18.45;;;;;;;0.93;100.00;93655.00;10577666;28;20019;-79
2021/01/30 21:58:31;;;;;;;34.67;20.55;;;;;;;0.73;100.00;93650.97;10576767;28;20024;-79
2021/01/30 22:03:31;;;;;;;35.88;17.52;;;;;;;0.79;100.00;93650.00;10576965;28;20032;-79
2021/01/30 22:08:32;;;;;;;40.40;19.10;;;;;;;0.78;100.00;93645.78;10577051;28;20019;-79
2021/01/30 22:13:32;;;;;;;38.63;18.55;;;;;;;0.86;100.00;93647.22;10542937;28;20024;-79
2021/01/30 22:18:33;;;;;;;38.15;19.45;;;;;;;0.80;100.00;93643.69;10548219;28;20028;-79
2021/01/30 22:23:33;;;;;;;38.08;17.40;;;;;;;0.58;100.00;93614.50;10533955;28;20036;-79
2021/01/30 22:28:33;;;;;;;40.43;17.80;;;;;;;0.77;100.00;93616.94;10533667;28;20028;-79
2021/01/30 22:33:34;;;;;;;38.40;17.73;;;;;;;0.75;100.00;93643.59;10534028;28;20353;-79
2021/01/30 22:38:36;;;;;;;34.92;16.90;;;;;;;0.72;100.00;93641.44;10533773;28;20082;-79
2021/01/30 22:43:37;;;;;;;33.05;16.70;;;;;;;0.74;100.00;93630.59;10533193;28;20107;-79
2021/01/30 22:48:37;;;;;;;34.22;17.65;;;;;;;0.72;100.00;93633.50;10533385;28;20445;-79
2021/01/30 22:53:38;;;;;;;33.73;16.97;;;;;;;0.90;100.00;93621.88;10533088;28;20077;-79
2021/01/30 22:58:38;;;;;;;38.30;19.53;;;;;;;0.74;100.00;93639.38;10532904;28;20282;-79
2021/01/30 23:03:38;;;;;;;30.58;17.23;;;;;;;0.85;100.00;93625.25;10532256;28;20065;-79
2021/01/30 23:08:39;;;;;;;34.00;16.97;;;;;;;0.95;100.00;93613.22;10532161;28;20026;-79
2021/01/30 23:13:39;;;;;;;37.80;18.70;;;;;;;1.08;100.00;93636.72;10532614;28;20262;-79